KDAN

Danville Regional Airport

Danville, Virginia, USA
METAR KDAN 231153Z AUTO 21004KT 10SM CLR 04/04 A3018 RMK AO2 SLP215 T00390039 10067 20039 51003
Observed Flight Rules
Oct-23 @ 11:53 UTC (52 minutes ago) Visual Flight Rules
Wind Visibility Clouds
210° at 4 knots 10 miles
  • Clear skies
Temperatures Readings
Current 4°C / 39°F
Dewpoint 4°C / 39°F
Humidity 100%
Altimeter 30.18" Hg
Pressure 1021.5 hPa
Elevation 175
METAR KDAN 231153Z AUTO 21004KT 10SM CLR 04/04 A3018 RMK AO2 SLP215 T00390039 10067 20039 51003
Observed Flight Rules
Oct-23 @ 11:53 UTC
(52 minutes ago)
VFR
Wind Visibility
210° at 4 knots 10 miles
Clouds
  • Clear skies
Temperature Dewpoint
4°C / 39°F 4°C / 39°F
Humidity Altimeter Pressure
100% 30.18" Hg 1021.5 hPa